createdAt,value
2023-05-19T00:00:05.220Z,12.0
2023-05-19T00:02:45.903Z,13.0
2023-05-19T00:05:26.635Z,14.0
2023-05-19T00:07:57.249Z,15.0
2023-05-19T00:10:27.866Z,16.0
2023-05-19T00:12:58.456Z,16.0
2023-05-19T00:17:59.164Z,17.0
2023-05-19T00:20:39.832Z,15.0
2023-05-19T00:23:10.383Z,14.0
2023-05-19T00:25:40.951Z,14.0
2023-05-19T00:28:11.515Z,12.0
2023-05-19T00:30:42.404Z,11.0
2023-05-19T00:33:13.161Z,11.0
2023-05-19T00:35:53.783Z,10.0
2023-05-19T00:38:24.356Z,9.0
2023-05-19T00:40:54.940Z,9.0
2023-05-19T00:43:25.503Z,8.0
2023-05-19T00:45:56.068Z,8.0
2023-05-19T00:48:26.765Z,7.0
2023-05-19T00:51:07.370Z,7.0
2023-05-19T00:53:37.938Z,6.0
2023-05-19T00:58:38.497Z,7.0
2023-05-19T01:01:09.097Z,6.0
2023-05-19T01:03:39.863Z,6.0
2023-05-19T01:06:20.588Z,5.0
2023-05-19T01:08:51.242Z,5.0
2023-05-19T01:11:21.814Z,4.0
2023-05-19T01:13:52.617Z,4.0
2023-05-19T01:16:23.470Z,3.0
2023-05-19T01:19:04.235Z,2.0
2023-05-19T01:21:34.858Z,2.0
2023-05-19T01:24:05.441Z,1.0
2023-05-19T01:26:36.025Z,0.0
2023-05-19T01:29:06.578Z,99.0
2023-05-19T01:31:37.168Z,99.0
2023-05-19T01:34:17.877Z,99.0
2023-05-19T01:39:18.561Z,99.0
2023-05-19T01:41:49.151Z,99.0
2023-05-19T01:44:19.706Z,99.0
2023-05-19T01:46:50.270Z,99.0
2023-05-19T01:49:30.854Z,99.0
2023-05-19T01:52:01.451Z,99.0
2023-05-19T01:54:32.074Z,99.0
2023-05-19T01:57:02.673Z,99.0
2023-05-19T01:59:33.262Z,99.0
2023-05-19T02:02:03.852Z,99.0
2023-05-19T02:04:44.545Z,99.0
2023-05-19T02:07:15.327Z,99.0
2023-05-19T02:09:45.997Z,99.0
2023-05-19T02:12:16.568Z,99.0
2023-05-19T02:14:47.127Z,99.0
2023-05-19T02:20:07.699Z,99.0
2023-05-19T02:22:38.251Z,99.0
2023-05-19T02:25:08.830Z,99.0
2023-05-19T02:27:39.398Z,99.0
2023-05-19T02:30:09.961Z,99.0
2023-05-19T02:35:20.548Z,99.0
2023-05-19T02:37:51.092Z,99.0
2023-05-19T02:40:21.789Z,99.0
2023-05-19T02:42:52.567Z,99.0
2023-05-19T02:45:23.344Z,99.0
2023-05-19T02:48:03.978Z,99.0
2023-05-19T02:50:34.771Z,99.0
2023-05-19T02:53:05.315Z,99.0
2023-05-19T02:55:35.882Z,99.0
2023-05-19T03:00:36.455Z,99.0
2023-05-19T03:03:17.134Z,99.0
2023-05-19T03:05:47.785Z,99.0
2023-05-19T03:08:18.321Z,99.0
2023-05-19T03:10:48.880Z,99.0
2023-05-19T03:13:19.438Z,99.0
2023-05-19T03:15:50.033Z,99.0
2023-05-19T03:18:30.749Z,99.0
2023-05-19T03:21:01.399Z,99.0
2023-05-19T03:23:31.987Z,99.0
2023-05-19T03:26:02.540Z,99.0
2023-05-19T03:28:33.065Z,99.0
2023-05-19T03:31:13.651Z,99.0
2023-05-19T03:33:44.420Z,99.0
2023-05-19T03:36:15.045Z,99.0
2023-05-19T03:41:15.601Z,99.0
2023-05-19T03:43:46.156Z,99.0
2023-05-19T03:46:26.862Z,99.0
2023-05-19T03:48:57.470Z,99.0
2023-05-19T03:51:28.065Z,99.0
2023-05-19T03:53:58.637Z,99.0
2023-05-19T03:56:29.173Z,99.0
2023-05-19T03:58:59.749Z,99.0
2023-05-19T04:01:40.303Z,99.0
2023-05-19T04:04:10.981Z,99.0
2023-05-19T04:06:41.644Z,99.0
2023-05-19T04:09:12.226Z,99.0
2023-05-19T04:11:42.865Z,99.0
2023-05-19T04:14:13.431Z,99.0
2023-05-19T04:16:54.023Z,99.0
2023-05-19T04:22:04.592Z,99.0
2023-05-19T04:24:35.189Z,99.0
2023-05-19T04:27:05.788Z,99.0
2023-05-19T04:29:46.460Z,99.0
2023-05-19T04:32:17.071Z,99.0
2023-05-19T04:34:47.675Z,99.0
2023-05-19T04:37:18.229Z,99.0
2023-05-19T04:39:48.884Z,99.0
2023-05-19T04:42:19.533Z,99.0
2023-05-19T04:45:00.294Z,99.0
2023-05-19T04:47:30.913Z,99.0
2023-05-19T04:50:01.484Z,99.0
2023-05-19T04:52:32.117Z,99.0
2023-05-19T04:55:02.702Z,99.0
2023-05-19T04:57:33.302Z,99.0
2023-05-19T05:02:43.893Z,99.0
2023-05-19T05:05:14.596Z,0.0
2023-05-19T05:07:45.175Z,0.0
2023-05-19T05:10:15.895Z,0.0
2023-05-19T05:12:46.452Z,1.0
2023-05-19T05:15:27.027Z,1.0
2023-05-19T05:20:27.643Z,0.0
2023-05-19T05:22:58.196Z,1.0
2023-05-19T05:25:28.781Z,1.0
2023-05-19T05:27:59.386Z,2.0
2023-05-19T05:30:39.940Z,2.0
2023-05-19T05:33:10.693Z,3.0
2023-05-19T05:35:41.970Z,3.0
2023-05-19T05:38:12.544Z,3.0
2023-05-19T05:43:23.105Z,3.0
2023-05-19T05:45:53.715Z,3.0
2023-05-19T05:48:24.567Z,5.0
2023-05-19T05:50:55.181Z,5.0
2023-05-19T05:53:25.741Z,6.0
2023-05-19T05:55:56.307Z,6.0
2023-05-19T05:58:37.437Z,6.0
2023-05-19T06:01:08.193Z,6.0
2023-05-19T06:03:38.956Z,8.0
2023-05-19T06:06:09.687Z,9.0
2023-05-19T06:08:40.262Z,9.0
2023-05-19T06:11:10.843Z,9.0
2023-05-19T06:13:51.413Z,9.0
2023-05-19T06:16:22.053Z,9.0
2023-05-19T06:18:52.822Z,10.0
2023-05-19T06:23:53.588Z,11.0
2023-05-19T06:26:24.147Z,11.0
2023-05-19T06:29:04.684Z,14.0
2023-05-19T06:31:35.346Z,14.0
2023-05-19T06:34:05.981Z,15.0
2023-05-19T06:36:36.750Z,17.0
2023-05-19T06:39:07.351Z,16.0
2023-05-19T06:41:47.901Z,18.0
2023-05-19T06:44:19.847Z,19.0
2023-05-19T06:46:51.157Z,19.0
2023-05-19T06:49:21.745Z,20.0
2023-05-19T06:51:52.340Z,20.0
2023-05-19T06:54:22.927Z,21.0
2023-05-19T06:57:03.489Z,21.0
2023-05-19T06:59:34.141Z,20.0
2023-05-19T07:04:34.720Z,23.0
2023-05-19T07:07:05.323Z,22.0
2023-05-19T07:09:45.994Z,24.0
2023-05-19T07:12:26.579Z,25.0
2023-05-19T07:14:57.239Z,24.0
2023-05-19T07:17:27.858Z,24.0
2023-05-19T07:19:58.467Z,24.0
2023-05-19T07:22:29.167Z,24.0
2023-05-19T07:24:59.723Z,26.0
2023-05-19T07:27:40.298Z,28.0
2023-05-19T07:30:10.851Z,28.0
2023-05-19T07:32:41.472Z,28.0
2023-05-19T07:35:12.160Z,28.0
2023-05-19T07:37:42.740Z,31.0
2023-05-19T07:40:13.335Z,29.0
2023-05-19T07:45:23.932Z,32.0
2023-05-19T07:47:54.676Z,30.0
2023-05-19T07:50:25.306Z,31.0
2023-05-19T07:52:55.904Z,33.0
2023-05-19T07:55:36.564Z,34.0
2023-05-19T07:58:07.102Z,33.0
2023-05-19T08:00:37.634Z,34.0
2023-05-19T08:03:08.531Z,34.0
2023-05-19T08:05:39.440Z,33.0
2023-05-19T08:08:09.987Z,35.0
2023-05-19T08:10:50.597Z,33.0
2023-05-19T08:13:21.152Z,33.0
2023-05-19T08:15:51.767Z,32.0
2023-05-19T08:18:22.559Z,33.0
2023-05-19T08:20:53.150Z,33.0
2023-05-19T08:26:03.742Z,33.0
2023-05-19T08:28:34.279Z,30.0
2023-05-19T08:31:04.889Z,31.0
2023-05-19T08:33:35.516Z,30.0
2023-05-19T08:36:06.174Z,31.0
2023-05-19T08:38:36.804Z,32.0
2023-05-19T08:41:17.462Z,31.0
2023-05-19T08:43:48.058Z,32.0
2023-05-19T08:46:18.773Z,32.0
2023-05-19T08:48:49.382Z,30.0
2023-05-19T08:51:19.952Z,32.0
2023-05-19T08:54:00.524Z,32.0
2023-05-19T08:56:31.082Z,31.0
2023-05-19T08:59:01.659Z,32.0
2023-05-19T09:01:32.347Z,30.0
2023-05-19T09:06:32.945Z,33.0
2023-05-19T09:09:13.518Z,33.0
2023-05-19T09:11:44.163Z,35.0
2023-05-19T09:14:14.735Z,35.0
2023-05-19T09:16:45.451Z,35.0
2023-05-19T09:19:16.183Z,36.0
2023-05-19T09:21:46.968Z,36.0
2023-05-19T09:24:27.716Z,38.0
2023-05-19T09:26:59.875Z,37.0
2023-05-19T09:29:30.668Z,34.0
2023-05-19T09:32:01.349Z,38.0
2023-05-19T09:34:32.093Z,39.0
2023-05-19T09:37:02.677Z,37.0
2023-05-19T09:39:43.257Z,36.0
2023-05-19T09:42:13.979Z,34.0
2023-05-19T09:47:14.555Z,38.0
2023-05-19T09:49:45.221Z,36.0
2023-05-19T09:52:15.826Z,35.0
2023-05-19T09:54:56.418Z,35.0
2023-05-19T09:57:37.193Z,36.0
2023-05-19T10:00:07.765Z,37.0
2023-05-19T10:02:38.499Z,37.0
2023-05-19T10:05:09.248Z,38.0
2023-05-19T10:07:49.964Z,39.0
2023-05-19T10:10:20.566Z,38.0
2023-05-19T10:12:51.111Z,35.0
2023-05-19T10:15:23.039Z,38.0
2023-05-19T10:17:44.130Z,38.0
2023-05-19T10:20:14.750Z,39.0
2023-05-19T10:22:55.326Z,39.0
2023-05-19T10:28:05.924Z,38.0
2023-05-19T10:30:36.529Z,40.0
2023-05-19T10:33:07.190Z,37.0
2023-05-19T10:35:38.180Z,40.0
2023-05-19T10:38:18.925Z,37.0
2023-05-19T10:40:49.530Z,40.0
2023-05-19T10:43:20.110Z,42.0
2023-05-19T10:45:50.819Z,40.0
2023-05-19T10:48:21.477Z,42.0
2023-05-19T10:50:52.062Z,42.0
2023-05-19T10:53:32.638Z,44.0
2023-05-19T10:56:03.209Z,43.0
2023-05-19T10:58:33.767Z,44.0
2023-05-19T11:01:04.335Z,42.0
2023-05-19T11:03:34.906Z,44.0
2023-05-19T11:08:45.535Z,44.0
2023-05-19T11:11:16.085Z,44.0
2023-05-19T11:13:46.981Z,45.0
2023-05-19T11:16:17.620Z,45.0
2023-05-19T11:18:48.364Z,45.0
2023-05-19T11:21:29.074Z,46.0
2023-05-19T11:23:59.732Z,45.0
2023-05-19T11:26:30.348Z,46.0
2023-05-19T11:29:00.930Z,46.0
2023-05-19T11:31:31.601Z,45.0
2023-05-19T11:34:02.209Z,47.0
2023-05-19T11:36:42.820Z,47.0
2023-05-19T11:39:13.447Z,47.0
2023-05-19T11:41:44.050Z,48.0
2023-05-19T11:44:14.607Z,49.0
2023-05-19T11:49:15.189Z,48.0
2023-05-19T11:51:55.801Z,49.0
2023-05-19T11:54:26.370Z,49.0
2023-05-19T11:56:57.104Z,50.0
2023-05-19T11:59:27.670Z,49.0
2023-05-19T12:01:58.235Z,51.0
2023-05-19T12:04:38.864Z,51.0
2023-05-19T12:07:09.545Z,51.0
2023-05-19T12:09:40.150Z,51.0
2023-05-19T12:12:10.825Z,51.0
2023-05-19T12:14:41.408Z,51.0
2023-05-19T12:17:11.963Z,51.0
2023-05-19T12:19:52.650Z,51.0
2023-05-19T12:22:23.211Z,51.0
2023-05-19T12:24:53.854Z,51.0
2023-05-19T12:29:54.457Z,49.0
2023-05-19T12:32:25.083Z,51.0
2023-05-19T12:35:05.777Z,51.0
2023-05-19T12:37:36.295Z,51.0
2023-05-19T12:40:06.877Z,50.0
2023-05-19T12:42:37.462Z,50.0
2023-05-19T12:45:18.049Z,50.0
2023-05-19T12:47:39.253Z,51.0
2023-05-19T12:50:20.195Z,50.0
2023-05-19T12:52:51.088Z,50.0
2023-05-19T12:55:22.346Z,51.0
2023-05-19T12:57:52.952Z,50.0
2023-05-19T13:00:23.648Z,50.0
2023-05-19T13:02:54.960Z,50.0
2023-05-19T13:05:36.197Z,49.0
2023-05-19T13:10:36.810Z,50.0
2023-05-19T13:13:07.375Z,50.0
2023-05-19T13:15:37.999Z,50.0
2023-05-19T13:18:18.733Z,49.0
2023-05-19T13:20:49.303Z,50.0
2023-05-19T13:23:19.887Z,49.0
2023-05-19T13:26:00.465Z,49.0
2023-05-19T13:28:31.011Z,48.0
2023-05-19T13:31:01.689Z,48.0
2023-05-19T13:33:42.368Z,49.0
2023-05-19T13:36:12.922Z,48.0
2023-05-19T13:38:43.510Z,48.0
2023-05-19T13:41:15.909Z,48.0
2023-05-19T13:43:36.624Z,48.0
2023-05-19T13:46:07.305Z,47.0
2023-05-19T13:51:19.639Z,48.0
2023-05-19T13:53:50.231Z,48.0
2023-05-19T13:56:20.796Z,47.0
2023-05-19T13:58:51.342Z,48.0
2023-05-19T14:01:21.955Z,47.0
2023-05-19T14:04:02.940Z,47.0
2023-05-19T14:06:33.729Z,47.0
2023-05-19T14:09:04.435Z,49.0
2023-05-19T14:11:35.001Z,49.0
2023-05-19T14:14:05.662Z,49.0
2023-05-19T14:16:38.150Z,49.0
2023-05-19T14:19:18.862Z,49.0
2023-05-19T14:21:49.500Z,48.0
2023-05-19T14:24:20.075Z,49.0
2023-05-19T14:26:50.723Z,48.0
2023-05-19T14:32:01.439Z,48.0
2023-05-19T14:34:32.087Z,49.0
2023-05-19T14:37:02.688Z,49.0
2023-05-19T14:39:33.299Z,50.0
2023-05-19T14:42:03.921Z,50.0
2023-05-19T14:44:44.449Z,51.0
2023-05-19T14:47:27.046Z,51.0
2023-05-19T14:49:47.875Z,51.0
2023-05-19T14:52:18.456Z,51.0
2023-05-19T14:54:49.085Z,51.0
2023-05-19T14:57:19.681Z,51.0
2023-05-19T14:59:50.240Z,51.0
2023-05-19T15:02:30.874Z,51.0
2023-05-19T15:05:01.612Z,51.0
2023-05-19T15:07:32.235Z,52.0
2023-05-19T15:12:42.914Z,51.0
2023-05-19T15:15:13.506Z,51.0
2023-05-19T15:17:54.089Z,51.0
2023-05-19T15:20:25.412Z,50.0
2023-05-19T15:22:46.795Z,51.0
2023-05-19T15:25:17.418Z,50.0
2023-05-19T15:27:47.994Z,50.0
2023-05-19T15:30:18.677Z,50.0
2023-05-19T15:33:09.412Z,50.0
2023-05-19T15:35:40.038Z,49.0
2023-05-19T15:38:10.570Z,50.0
2023-05-19T15:40:41.386Z,50.0
2023-05-19T15:43:12.080Z,50.0
2023-05-19T15:45:52.678Z,51.0
2023-05-19T15:48:23.308Z,50.0
2023-05-19T15:53:23.898Z,50.0
2023-05-19T15:55:54.505Z,49.0
2023-05-19T15:58:25.366Z,49.0
2023-05-19T16:01:05.988Z,49.0
2023-05-19T16:03:36.743Z,49.0
2023-05-19T16:06:07.640Z,48.0
2023-05-19T16:08:38.240Z,50.0
2023-05-19T16:11:08.879Z,49.0
2023-05-19T16:13:39.422Z,49.0
2023-05-19T16:16:20.052Z,48.0
2023-05-19T16:18:50.791Z,49.0
2023-05-19T16:21:21.442Z,48.0
2023-05-19T16:23:52.031Z,49.0
2023-05-19T16:26:22.599Z,49.0
2023-05-19T16:28:53.156Z,48.0
2023-05-19T16:34:03.803Z,50.0
2023-05-19T16:36:34.408Z,49.0
2023-05-19T16:39:05.089Z,48.0
2023-05-19T16:41:35.650Z,47.0
2023-05-19T16:44:16.241Z,46.0
2023-05-19T16:46:46.955Z,46.0
2023-05-19T16:49:17.525Z,46.0
2023-05-19T16:51:48.953Z,46.0
2023-05-19T16:54:19.671Z,45.0
2023-05-19T16:56:50.306Z,43.0
2023-05-19T16:59:30.941Z,42.0
2023-05-19T17:02:01.770Z,43.0
2023-05-19T17:04:32.390Z,44.0
2023-05-19T17:07:02.958Z,43.0
2023-05-19T17:09:33.579Z,43.0
2023-05-19T17:14:44.145Z,42.0
2023-05-19T17:17:14.806Z,43.0
2023-05-19T17:19:45.653Z,42.0
2023-05-19T17:22:16.172Z,42.0
2023-05-19T17:24:48.573Z,41.0
2023-05-19T17:27:19.214Z,41.0
2023-05-19T17:29:59.816Z,41.0
2023-05-19T17:32:30.524Z,40.0
2023-05-19T17:35:01.355Z,41.0
2023-05-19T17:37:31.880Z,40.0
2023-05-19T17:40:02.504Z,40.0
2023-05-19T17:42:33.121Z,40.0
2023-05-19T17:45:13.670Z,39.0
2023-05-19T17:47:44.322Z,39.0
2023-05-19T17:50:14.945Z,38.0
2023-05-19T17:55:15.539Z,38.0
2023-05-19T17:57:46.125Z,37.0
2023-05-19T18:00:26.776Z,38.0
2023-05-19T18:02:57.622Z,37.0
2023-05-19T18:05:28.515Z,37.0
2023-05-19T18:07:59.052Z,36.0
2023-05-19T18:10:29.695Z,36.0
2023-05-19T18:13:00.249Z,36.0
2023-05-19T18:15:40.808Z,36.0
2023-05-19T18:18:11.533Z,36.0
2023-05-19T18:20:42.375Z,35.0
2023-05-19T18:23:12.907Z,34.0
2023-05-19T18:25:43.507Z,33.0
2023-05-19T18:28:24.058Z,32.0
2023-05-19T18:30:54.639Z,31.0
2023-05-19T18:36:05.215Z,31.0
2023-05-19T18:38:35.797Z,32.0
2023-05-19T18:41:06.409Z,32.0
2023-05-19T18:43:46.982Z,31.0
2023-05-19T18:46:17.565Z,31.0
2023-05-19T18:48:48.267Z,32.0
2023-05-19T18:51:18.813Z,32.0
2023-05-19T18:53:49.356Z,32.0
2023-05-19T18:56:19.987Z,30.0
2023-05-19T18:59:00.537Z,29.0
2023-05-19T19:01:31.189Z,29.0
2023-05-19T19:04:01.973Z,29.0
2023-05-19T19:06:32.705Z,29.0
2023-05-19T19:09:04.374Z,28.0
2023-05-19T19:11:34.954Z,28.0
2023-05-19T19:16:45.584Z,27.0
2023-05-19T19:19:16.620Z,26.0
2023-05-19T19:21:47.323Z,25.0
2023-05-19T19:24:17.905Z,24.0
2023-05-19T19:26:58.511Z,24.0
2023-05-19T19:29:29.144Z,22.0
2023-05-19T19:31:59.944Z,22.0
2023-05-19T19:34:30.630Z,21.0
2023-05-19T19:37:01.203Z,22.0
2023-05-19T19:39:31.880Z,21.0
2023-05-19T19:42:12.526Z,20.0
2023-05-19T19:44:43.118Z,20.0
2023-05-19T19:47:13.806Z,19.0
2023-05-19T19:49:44.461Z,18.0
2023-05-19T19:52:15.037Z,17.0
2023-05-19T19:57:25.725Z,16.0
2023-05-19T19:59:56.294Z,16.0
2023-05-19T20:02:27.112Z,15.0
2023-05-19T20:04:58.614Z,14.0
2023-05-19T20:07:29.189Z,13.0
2023-05-19T20:09:59.781Z,12.0
2023-05-19T20:12:40.360Z,9.0
2023-05-19T20:15:11.123Z,9.0
2023-05-19T20:17:41.796Z,8.0
2023-05-19T20:20:12.416Z,7.0
2023-05-19T20:22:43.042Z,6.0
2023-05-19T20:25:23.577Z,5.0
2023-05-19T20:27:54.443Z,5.0
2023-05-19T20:30:25.021Z,4.0
2023-05-19T20:32:55.871Z,4.0
2023-05-19T20:37:56.582Z,3.0
2023-05-19T20:40:37.149Z,3.0
2023-05-19T20:43:07.882Z,2.0
2023-05-19T20:45:38.556Z,1.0
2023-05-19T20:48:09.427Z,1.0
2023-05-19T20:50:40.022Z,0.0
2023-05-19T20:53:10.567Z,0.0
2023-05-19T20:55:51.244Z,99.0
2023-05-19T20:58:21.850Z,99.0
2023-05-19T21:00:52.535Z,99.0
2023-05-19T21:03:23.627Z,99.0
2023-05-19T21:05:54.280Z,99.0
2023-05-19T21:08:24.829Z,99.0
2023-05-19T21:11:05.411Z,99.0
2023-05-19T21:13:36.144Z,99.0
2023-05-19T21:18:36.709Z,99.0
2023-05-19T21:21:07.284Z,99.0
2023-05-19T21:23:37.827Z,99.0
2023-05-19T21:26:18.490Z,99.0
2023-05-19T21:28:49.044Z,99.0
2023-05-19T21:31:19.732Z,99.0
2023-05-19T21:33:50.352Z,99.0
2023-05-19T21:36:20.942Z,99.0
2023-05-19T21:39:01.524Z,99.0
2023-05-19T21:41:32.089Z,99.0
2023-05-19T21:44:02.642Z,99.0
2023-05-19T21:46:43.372Z,99.0
2023-05-19T21:49:14.340Z,99.0
2023-05-19T21:51:44.918Z,99.0
2023-05-19T21:54:25.506Z,99.0
2023-05-19T21:59:26.168Z,99.0
2023-05-19T22:01:56.827Z,99.0
2023-05-19T22:04:29.026Z,99.0
2023-05-19T22:06:59.597Z,99.0
2023-05-19T22:09:40.189Z,99.0
2023-05-19T22:12:10.771Z,99.0
2023-05-19T22:14:41.334Z,99.0
2023-05-19T22:17:11.953Z,99.0
2023-05-19T22:19:42.729Z,99.0
2023-05-19T22:22:23.972Z,99.0
2023-05-19T22:24:54.543Z,99.0
2023-05-19T22:27:25.161Z,99.0
2023-05-19T22:29:55.720Z,99.0
2023-05-19T22:34:56.572Z,99.0
2023-05-19T22:40:07.163Z,99.0
2023-05-19T22:42:37.714Z,99.0
2023-05-19T22:45:08.260Z,99.0
2023-05-19T22:47:38.925Z,99.0
2023-05-19T22:50:09.532Z,99.0
2023-05-19T22:52:50.163Z,99.0
2023-05-19T22:55:20.750Z,99.0
2023-05-19T22:57:51.302Z,99.0
2023-05-19T23:00:21.924Z,99.0
2023-05-19T23:02:52.712Z,99.0
2023-05-19T23:05:23.565Z,99.0
2023-05-19T23:08:04.402Z,99.0
2023-05-19T23:10:34.961Z,99.0
2023-05-19T23:13:05.538Z,99.0
2023-05-19T23:15:36.325Z,99.0
2023-05-19T23:20:36.986Z,99.0
2023-05-19T23:23:17.543Z,99.0
2023-05-19T23:25:49.661Z,99.0
2023-05-19T23:28:20.250Z,99.0
2023-05-19T23:30:50.929Z,99.0
2023-05-19T23:33:21.557Z,99.0
2023-05-19T23:35:52.166Z,99.0
2023-05-19T23:38:32.731Z,99.0
2023-05-19T23:41:03.305Z,99.0
2023-05-19T23:43:33.841Z,99.0
2023-05-19T23:46:04.459Z,99.0
2023-05-19T23:48:35.105Z,99.0
2023-05-19T23:51:05.652Z,99.0
2023-05-19T23:53:46.233Z,99.0
2023-05-19T23:56:16.885Z,99.0
